Norbank — PGIS — position and weather

sailwx.info

Track history (hours):
 
Tides and Currents Weather Stations Pressure Air Temp Water Temp Dewpoint Dewpoint Depression Visibility Wind Speed Wind Dir Waves Ship Positions

Norbank

Operator: P & O Ferries

Last reported at 2018-Aug-17 21:19 UTC. Time now 2018-Aug-18 00:48 UTC.
Position N 53°20' W 006°05'.

Length 167 m; draft 5.5 m.

Type: Ship (hazmat cat A). MMSI: 246213000.

Date/timePositionNaut miles runAvg speedWind from/ knotsBaromVisibWave heightAir tempDewpointWater temp
2018-Aug-17 21:19N 53°20' W 006°05'5 9.1
2018-Aug-17 20:48N 53°21' W 006°12'0 0.2
2018-Aug-17 18:25N 53°21' W 006°13'0 0.0
2018-Aug-17 17:59N 53°21' W 006°13'0 0.0
2018-Aug-17 17:27N 53°21' W 006°13'0 0.0
2018-Aug-17 16:58N 53°21' W 006°13'1 1.9
2018-Aug-17 16:12N 53°21' W 006°11'210.8
2018-Aug-17 16:00N 53°20' W 006°07'1017.7
2018-Aug-17 15:28N 53°23' W 005°52'7317.0
2018-Aug-17 11:10N 53°34' W 003°50'317.7
2018-Aug-17 10:59N 53°34' W 003°45'918.0
2018-Aug-17 10:29N 53°33' W 003°30'918.4
2018-Aug-17 10:00N 53°31' W 003°16'714.4
2018-Aug-17 09:30N 53°29' W 003°04'3 5.1
2018-Aug-17 09:00N 53°27' W 003°01'0 0.8
2018-Aug-17 08:30N 53°27' W 003°01'0 0.0
2018-Aug-17 07:58N 53°27' W 003°01'0 0.0
2018-Aug-17 07:28N 53°27' W 003°01'0 0.0
2018-Aug-17 06:58N 53°27' W 003°01'0 0.0
2018-Aug-17 06:28N 53°27' W 003°01'0 0.0
2018-Aug-17 05:58N 53°27' W 003°01'0 0.0
2018-Aug-17 05:30N 53°27' W 003°01'0 0.0
2018-Aug-17 05:00N 53°27' W 003°01'0 0.0
2018-Aug-17 04:30N 53°27' W 003°01'0 0.9
2018-Aug-17 04:00N 53°27' W 003°01'1 1.5
2018-Aug-17 03:30N 53°27' W 003°02'714.4
2018-Aug-17 03:00N 53°31' W 003°12'816.9
2018-Aug-17 02:30N 53°32' W 003°27'816.6
2018-Aug-17 02:00N 53°31' W 003°40'816.5
2018-Aug-17 01:30N 53°33' W 003°54'7917.6
2018-Aug-16 21:02N 53°20' W 006°05'115.9
2018-Aug-16 20:58N 53°20' W 006°06'4 0.9
2018-Aug-16 16:20N 53°21' W 006°13'2 6.5
2018-Aug-16 15:57N 53°21' W 006°09'816.9
2018-Aug-16 15:29N 53°22' W 005°56'7819.1
2018-Aug-16 11:22N 53°33' W 003°45'718.7
2018-Aug-16 11:00N 53°33' W 003°34'918.8
2018-Aug-16 10:30N 53°32' W 003°18'714.5
2018-Aug-16 10:00N 53°31' W 003°06'5 9.6
2018-Aug-16 09:30N 53°27' W 003°01'0 0.0
2018-Aug-16 09:00N 53°27' W 003°01'0 0.8
2018-Aug-16 08:29N 53°27' W 003°01'0 0.0
2018-Aug-16 07:59N 53°27' W 003°01'0 0.0
2018-Aug-16 07:28N 53°27' W 003°01'0 0.0
2018-Aug-16 06:58N 53°27' W 003°01'0 0.0
2018-Aug-16 06:22N 53°27' W 003°01'0 0.0
2018-Aug-16 05:58N 53°27' W 003°01'0 0.0
2018-Aug-16 05:31N 53°27' W 003°01'0 0.0
2018-Aug-16 04:57N 53°27' W 003°01'0 0.0
2018-Aug-16 04:30N 53°27' W 003°01'0 0.9
2018-Aug-16 04:00N 53°27' W 003°01'1 2.9
2018-Aug-16 03:30N 53°28' W 003°03'713.9
2018-Aug-16 03:00N 53°31' W 003°14'918.0
2018-Aug-16 02:31N 53°31' W 003°28'816.9
2018-Aug-16 02:00N 53°32' W 003°43'917.4
2018-Aug-16 01:30N 53°33' W 003°57'7519.2
2018-Aug-15 21:36N 53°21' W 006°01'218.6
2018-Aug-15 21:29N 53°20' W 006°04'5 1.1
2018-Aug-15 16:47N 53°21' W 006°13'0 1.0
2018-Aug-15 16:29N 53°21' W 006°13'4 8.9
2018-Aug-15 16:00N 53°20' W 006°06'918.7
2018-Aug-15 15:30N 53°23' W 005°51'7517.2
2018-Aug-15 11:08N 53°34' W 003°46'316.3
2018-Aug-15 10:59N 53°33' W 003°41'816.6
2018-Aug-15 10:30N 53°33' W 003°28'816.7
2018-Aug-15 10:00N 53°31' W 003°14'612.0
2018-Aug-15 09:30N 53°29' W 003°05'3 6.3
2018-Aug-15 09:00N 53°27' W 003°01'0 0.1
2018-Aug-15 08:29N 53°27' W 003°01'0 0.8
2018-Aug-15 08:00N 53°27' W 003°01'0 0.0
2018-Aug-15 07:30N 53°27' W 003°01'0 0.0
2018-Aug-15 06:59N 53°27' W 003°01'0 0.0
2018-Aug-15 06:26N 53°27' W 003°01'0 0.0
2018-Aug-15 05:56N 53°27' W 003°01'0 0.0
2018-Aug-15 05:26N 53°27' W 003°01'0 0.0
2018-Aug-15 04:59N 53°27' W 003°01'0 0.0
2018-Aug-15 04:30N 53°27' W 003°01'0 0.8
2018-Aug-15 04:00N 53°27' W 003°01'1 2.5
2018-Aug-15 03:30N 53°28' W 003°03'713.5
2018-Aug-15 03:00N 53°31' W 003°13'815.9
2018-Aug-15 02:30N 53°31' W 003°26'816.1
2018-Aug-15 02:00N 53°31' W 003°40'816.1
2018-Aug-15 01:30N 53°32' W 003°53'816.4
2018-Aug-15 01:00N 53°34' W 004°06'7217.8
2018-Aug-14 20:56N 53°20' W 006°06'4 9.7
2018-Aug-14 20:30N 53°21' W 006°13'0 0.1
2018-Aug-14 16:51N 53°21' W 006°13'0 0.4
2018-Aug-14 16:28N 53°21' W 006°13'3 5.9
2018-Aug-14 16:00N 53°21' W 006°08'712.9
2018-Aug-14 15:27N 53°22' W 005°57'7817.4
2018-Aug-14 10:58N 53°34' W 003°47'916.7
2018-Aug-14 10:26N 53°33' W 003°32'717.0
2018-Aug-14 10:00N 53°32' W 003°20'815.3
2018-Aug-14 09:30N 53°31' W 003°07'611.3
2018-Aug-14 09:00N 53°27' W 003°01'0 0.2
2018-Aug-14 08:30N 53°27' W 003°01'0 0.8
2018-Aug-14 07:59N 53°27' W 003°01'0 0.0
2018-Aug-14 07:29N 53°27' W 003°01'0 0.0
2018-Aug-14 06:59N 53°27' W 003°01'0 0.0
2018-Aug-14 06:29N 53°27' W 003°01'0 0.0
2018-Aug-14 05:58N 53°27' W 003°01'0 0.0
2018-Aug-14 05:28N 53°27' W 003°01'0 0.0
2018-Aug-14 04:58N 53°27' W 003°01'0 0.0
2018-Aug-14 04:25N 53°27' W 003°01'0 0.6
2018-Aug-14 04:00N 53°27' W 003°01'0 0.7
2018-Aug-14 03:30N 53°27' W 003°01'5 9.8
2018-Aug-14 03:00N 53°31' W 003°06'816.1
2018-Aug-14 02:30N 53°31' W 003°20'816.1
2018-Aug-14 02:00N 53°31' W 003°34'815.5
2018-Aug-14 01:30N 53°31' W 003°47'815.9
2018-Aug-14 00:59N 53°33' W 004°00'1016.4
2018-Aug-14 00:24N 53°35' W 004°16'6417.7
2018-Aug-13 20:46N 53°21' W 006°01'514.5
2018-Aug-13 20:27N 53°21' W 006°09'3 5.4
2018-Aug-13 19:58N 53°21' W 006°13'0 0.0
2018-Aug-13 04:33N 53°21' W 006°13'0 1.6
2018-Aug-13 04:28N 53°21' W 006°13'2 4.3
2018-Aug-13 04:00N 53°21' W 006°10'915.7
2018-Aug-13 03:27N 53°23' W 005°56'916.5
2018-Aug-13 02:55N 53°25' W 005°41'4415.5
2018-Aug-13 00:05N 53°35' W 004°29'116.7
2018-Aug-13 00:00N 53°35' W 004°27'1216.3
2018-Aug-12 23:18N 53°34' W 004°08'1215.5
2018-Aug-12 22:31N 53°34' W 003°47'115.3
2018-Aug-12 22:28N 53°33' W 003°46'714.8
2018-Aug-12 22:00N 53°33' W 003°35'814.8
2018-Aug-12 21:29N 53°32' W 003°22'715.3
2018-Aug-12 21:00N 53°32' W 003°09'713.8
2018-Aug-12 20:30N 53°27' W 003°01'0 0.6
2018-Aug-12 20:00N 53°27' W 003°01'0 0.7
2018-Aug-12 19:25N 53°27' W 003°01'0 0.0
2018-Aug-12 18:58N 53°27' W 003°01'0 0.0
2018-Aug-12 18:25N 53°27' W 003°01'0 0.0
2018-Aug-12 17:58N 53°27' W 003°01'0 0.0
2018-Aug-12 17:30N 53°27' W 003°01'0 0.0
2018-Aug-12 17:00N 53°27' W 003°01'0 0.0
2018-Aug-12 16:30N 53°27' W 003°01'0 0.0
2018-Aug-12 16:00N 53°27' W 003°01'0 0.0
2018-Aug-12 15:29N 53°27' W 003°01'0 0.0
2018-Aug-12 14:59N 53°27' W 003°01'0 0.0
2018-Aug-12 14:29N 53°27' W 003°01'0 0.0
2018-Aug-12 13:59N 53°27' W 003°01'0 0.0
2018-Aug-12 13:26N 53°27' W 003°01'0 0.0
2018-Aug-12 12:58N 53°27' W 003°01'0 0.0
2018-Aug-12 12:28N 53°27' W 003°01'0 0.0
2018-Aug-12 11:58N 53°27' W 003°01'0 0.0
2018-Aug-12 11:28N 53°27' W 003°01'0 0.0
2018-Aug-12 10:59N 53°27' W 003°01'0 0.0
2018-Aug-12 10:30N 53°27' W 003°01'0 0.0
2018-Aug-12 10:00N 53°27' W 003°01'0 0.0
2018-Aug-12 09:30N 53°27' W 003°01'0 0.0
2018-Aug-12 08:57N 53°27' W 003°01'0 0.0
2018-Aug-12 08:29N 53°27' W 003°01'0 0.0
2018-Aug-12 07:59N 53°27' W 003°01'0 0.0
2018-Aug-12 07:29N 53°27' W 003°01'0 0.0
2018-Aug-12 06:59N 53°27' W 003°01'0 0.0
2018-Aug-12 06:29N 53°27' W 003°01'0 0.0
2018-Aug-12 05:58N 53°27' W 003°01'0 0.0
2018-Aug-12 05:28N 53°27' W 003°01'0 0.0
2018-Aug-12 04:58N 53°27' W 003°01'0 0.9
2018-Aug-12 04:30N 53°27' W 003°01'0 0.3
2018-Aug-12 03:55N 53°27' W 003°01'512.6
2018-Aug-12 03:30N 53°31' W 003°07'815.1
2018-Aug-12 03:00N 53°31' W 003°20'917.4
2018-Aug-12 02:30N 53°31' W 003°34'917.2
2018-Aug-12 02:00N 53°32' W 003°49'817.1
2018-Aug-12 01:30N 53°32' W 004°03'7815.3
2018-Aug-11 20:26N 53°21' W 006°12'1 0.3
2018-Aug-11 18:21N 53°21' W 006°13'2 0.9
2018-Aug-11 16:01N 53°21' W 006°09'0 8.8
2018-Aug-11 15:59N 53°21' W 006°09'715.4
2018-Aug-11 15:30N 53°23' W 005°57'7918.2
2018-Aug-11 11:10N 53°34' W 003°46'317.3
2018-Aug-11 11:00N 53°33' W 003°41'816.8
2018-Aug-11 10:30N 53°33' W 003°27'816.7
2018-Aug-11 10:00N 53°31' W 003°13'815.5
2018-Aug-11 09:29N 53°27' W 003°02'0 0.7
2018-Aug-11 09:00N 53°27' W 003°01'0 0.9
2018-Aug-11 08:30N 53°27' W 003°01'0 0.0
2018-Aug-11 08:00N 53°27' W 003°01'0 0.0
2018-Aug-11 07:30N 53°27' W 003°01'0 0.0
2018-Aug-11 06:59N 53°27' W 003°01'0 0.0
2018-Aug-11 06:26N 53°27' W 003°01'0 0.0
2018-Aug-11 05:59N 53°27' W 003°01'0 0.0
2018-Aug-11 05:29N 53°27' W 003°01'0 0.0
2018-Aug-11 04:59N 53°27' W 003°01'0 0.0
2018-Aug-11 04:28N 53°27' W 003°01'0 0.8
2018-Aug-11 03:55N 53°27' W 003°01'0 0.4
2018-Aug-11 03:30N 53°27' W 003°01'611.8
2018-Aug-11 03:00N 53°31' W 003°07'816.0
2018-Aug-11 02:30N 53°31' W 003°21'1019.6
2018-Aug-11 02:00N 53°31' W 003°37'1019.4
2018-Aug-11 01:30N 53°32' W 003°53'7818.3
2018-Aug-10 21:14N 53°20' W 006°03'413.4
2018-Aug-10 20:58N 53°21' W 006°10'2 0.4
2018-Aug-10 16:24N 53°21' W 006°13'2 4.8
2018-Aug-10 16:00N 53°21' W 006°10'814.3
2018-Aug-10 15:28N 53°22' W 005°57'7817.9
2018-Aug-10 11:08N 53°34' W 003°49'217.3
2018-Aug-10 11:00N 53°34' W 003°45'916.8
2018-Aug-10 10:30N 53°33' W 003°30'816.6
2018-Aug-10 10:00N 53°32' W 003°17'815.6
2018-Aug-10 09:30N 53°29' W 003°05'3 5.8
2018-Aug-10 09:00N 53°27' W 003°01'0 0.9
2018-Aug-10 08:30N 53°27' W 003°01'0 0.0
2018-Aug-10 07:59N 53°27' W 003°01'0 0.0
2018-Aug-10 07:29N 53°27' W 003°01'0 0.0
2018-Aug-10 06:59N 53°27' W 003°01'0 0.0
2018-Aug-10 06:29N 53°27' W 003°01'0 0.0
2018-Aug-10 05:59N 53°27' W 003°01'0 0.0
2018-Aug-10 05:28N 53°27' W 003°01'0 0.0
2018-Aug-10 04:58N 53°27' W 003°01'0 0.2
2018-Aug-10 04:25N 53°27' W 003°01'0 0.8
2018-Aug-10 03:59N 53°27' W 003°01'0 0.3
2018-Aug-10 03:30N 53°27' W 003°01'713.6
2018-Aug-10 03:00N 53°32' W 003°09'916.5
2018-Aug-10 02:29N 53°31' W 003°24'918.1
2018-Aug-10 01:59N 53°31' W 003°39'917.8
2018-Aug-10 01:30N 53°32' W 003°53'7717.7
2018-Aug-09 21:11N 53°21' W 006°01'515.6
2018-Aug-09 20:53N 53°21' W 006°08'3 7.1
2018-Aug-09 20:30N 53°21' W 006°13'0 0.0
2018-Aug-09 18:08N 53°21' W 006°13'0 0.1
2018-Aug-09 16:18N 53°21' W 006°13'2 6.8
2018-Aug-09 15:56N 53°21' W 006°09'715.6
2018-Aug-09 15:28N 53°22' W 005°57'7217.4
2018-Aug-09 11:20N 53°34' W 003°58'818.2
2018-Aug-09 10:52N 53°33' W 003°44'617.6
2018-Aug-09 10:30N 53°33' W 003°33'917.2
2018-Aug-09 10:00N 53°32' W 003°18'816.5
2018-Aug-09 09:30N 53°30' W 003°05'4 6.9
2018-Aug-09 09:00N 53°27' W 003°01'0 0.9
2018-Aug-09 08:30N 53°27' W 003°01'0 0.0
2018-Aug-09 07:55N 53°27' W 003°01'0 0.0
2018-Aug-09 07:30N 53°27' W 003°01'0 0.0
2018-Aug-09 07:00N 53°27' W 003°01'0 0.0
2018-Aug-09 06:24N 53°27' W 003°01'0 0.0
2018-Aug-09 06:00N 53°27' W 003°01'0 0.0
2018-Aug-09 05:30N 53°27' W 003°01'0 0.0
2018-Aug-09 04:56N 53°27' W 003°01'0 0.0
2018-Aug-09 04:29N 53°27' W 003°01'0 0.9
2018-Aug-09 04:00N 53°27' W 003°01'0 0.2
2018-Aug-09 03:30N 53°27' W 003°01'510.6
2018-Aug-09 03:01N 53°31' W 003°07'815.6
2018-Aug-09 02:30N 53°31' W 003°20'918.3
2018-Aug-09 02:00N 53°31' W 003°35'918.3
2018-Aug-09 01:30N 53°32' W 003°51'918.2
2018-Aug-09 01:00N 53°34' W 004°06'917.6
2018-Aug-09 00:30N 53°35' W 004°20'1317.4
2018-Aug-08 23:45N 53°35' W 004°42'4218.7
2018-Aug-08 21:29N 53°23' W 005°51'1411.8
2018-Aug-08 20:21N 53°21' W 006°13'5 1.1
2018-Aug-08 15:44N 53°20' W 006°05'916.6
2018-Aug-08 15:11N 53°24' W 005°50'417.6
2018-Aug-08 14:56N 53°25' W 005°43'917.1
2018-Aug-08 14:27N 53°27' W 005°30'6117.7
2018-Aug-08 10:58N 53°34' W 003°47'817.7
2018-Aug-08 10:30N 53°33' W 003°33'917.4
2018-Aug-08 10:00N 53°32' W 003°19'816.9
2018-Aug-08 09:30N 53°29' W 003°05'3 6.5
2018-Aug-08 09:00N 53°27' W 003°01'0 0.9
2018-Aug-08 08:30N 53°27' W 003°01'0 0.0
2018-Aug-08 07:55N 53°27' W 003°01'0 0.0
2018-Aug-08 07:30N 53°27' W 003°01'0 0.0
2018-Aug-08 06:57N 53°27' W 003°01'0 0.0
2018-Aug-08 06:27N 53°27' W 003°01'0 0.0
2018-Aug-08 06:00N 53°27' W 003°01'0 0.0
2018-Aug-08 05:30N 53°27' W 003°01'0 0.0
2018-Aug-08 04:59N 53°27' W 003°01'0 0.0
2018-Aug-08 04:26N 53°27' W 003°01'0 0.9
2018-Aug-08 03:59N 53°27' W 003°01'0 0.3
2018-Aug-08 03:30N 53°27' W 003°01'714.4
2018-Aug-08 03:00N 53°32' W 003°10'917.1
2018-Aug-08 02:29N 53°31' W 003°25'817.1
2018-Aug-08 02:00N 53°31' W 003°39'816.7
2018-Aug-08 01:31N 53°32' W 003°53'917.3
2018-Aug-08 01:00N 53°34' W 004°07'  
Track history (hours):
 
Tides and Currents Weather Stations Pressure Air Temp Water Temp Dewpoint Dewpoint Depression Visibility Wind Speed Wind Dir Waves Ship Positions

Norbank

Operator: P & O Ferries

Last reported at 2018-Aug-17 21:19 UTC. Time now 2018-Aug-18 00:48 UTC.
Position N 53°20' W 006°05'.

Length 167 m; draft 5.5 m.

Type: Ship (hazmat cat A). MMSI: 246213000.

Date/timePositionNaut miles runAvg speedWind from/ knotsBaromVisibWave heightAir tempDewpointWater temp
2018-Aug-17 21:19N 53°20' W 006°05'5 9.1
2018-Aug-17 20:48N 53°21' W 006°12'0 0.2
2018-Aug-17 18:25N 53°21' W 006°13'0 0.0
2018-Aug-17 17:59N 53°21' W 006°13'0 0.0
2018-Aug-17 17:27N 53°21' W 006°13'0 0.0
2018-Aug-17 16:58N 53°21' W 006°13'1 1.9
2018-Aug-17 16:12N 53°21' W 006°11'210.8
2018-Aug-17 16:00N 53°20' W 006°07'1017.7
2018-Aug-17 15:28N 53°23' W 005°52'7317.0
2018-Aug-17 11:10N 53°34' W 003°50'317.7
2018-Aug-17 10:59N 53°34' W 003°45'918.0
2018-Aug-17 10:29N 53°33' W 003°30'918.4
2018-Aug-17 10:00N 53°31' W 003°16'714.4
2018-Aug-17 09:30N 53°29' W 003°04'3 5.1
2018-Aug-17 09:00N 53°27' W 003°01'0 0.8
2018-Aug-17 08:30N 53°27' W 003°01'0 0.0
2018-Aug-17 07:58N 53°27' W 003°01'0 0.0
2018-Aug-17 07:28N 53°27' W 003°01'0 0.0
2018-Aug-17 06:58N 53°27' W 003°01'0 0.0
2018-Aug-17 06:28N 53°27' W 003°01'0 0.0
2018-Aug-17 05:58N 53°27' W 003°01'0 0.0
2018-Aug-17 05:30N 53°27' W 003°01'0 0.0
2018-Aug-17 05:00N 53°27' W 003°01'0 0.0
2018-Aug-17 04:30N 53°27' W 003°01'0 0.9
2018-Aug-17 04:00N 53°27' W 003°01'1 1.5
2018-Aug-17 03:30N 53°27' W 003°02'714.4
2018-Aug-17 03:00N 53°31' W 003°12'816.9
2018-Aug-17 02:30N 53°32' W 003°27'816.6
2018-Aug-17 02:00N 53°31' W 003°40'816.5
2018-Aug-17 01:30N 53°33' W 003°54'7917.6
2018-Aug-16 21:02N 53°20' W 006°05'115.9
2018-Aug-16 20:58N 53°20' W 006°06'4 0.9
2018-Aug-16 16:20N 53°21' W 006°13'2 6.5
2018-Aug-16 15:57N 53°21' W 006°09'816.9
2018-Aug-16 15:29N 53°22' W 005°56'7819.1
2018-Aug-16 11:22N 53°33' W 003°45'718.7
2018-Aug-16 11:00N 53°33' W 003°34'918.8
2018-Aug-16 10:30N 53°32' W 003°18'714.5
2018-Aug-16 10:00N 53°31' W 003°06'5 9.6
2018-Aug-16 09:30N 53°27' W 003°01'0 0.0
2018-Aug-16 09:00N 53°27' W 003°01'0 0.8
2018-Aug-16 08:29N 53°27' W 003°01'0 0.0
2018-Aug-16 07:59N 53°27' W 003°01'0 0.0
2018-Aug-16 07:28N 53°27' W 003°01'0 0.0
2018-Aug-16 06:58N 53°27' W 003°01'0 0.0
2018-Aug-16 06:22N 53°27' W 003°01'0 0.0
2018-Aug-16 05:58N 53°27' W 003°01'0 0.0
2018-Aug-16 05:31N 53°27' W 003°01'0 0.0
2018-Aug-16 04:57N 53°27' W 003°01'0 0.0
2018-Aug-16 04:30N 53°27' W 003°01'0 0.9
2018-Aug-16 04:00N 53°27' W 003°01'1 2.9
2018-Aug-16 03:30N 53°28' W 003°03'713.9
2018-Aug-16 03:00N 53°31' W 003°14'918.0
2018-Aug-16 02:31N 53°31' W 003°28'816.9
2018-Aug-16 02:00N 53°32' W 003°43'917.4
2018-Aug-16 01:30N 53°33' W 003°57'7519.2
2018-Aug-15 21:36N 53°21' W 006°01'218.6
2018-Aug-15 21:29N 53°20' W 006°04'5 1.1
2018-Aug-15 16:47N 53°21' W 006°13'0 1.0
2018-Aug-15 16:29N 53°21' W 006°13'4 8.9
2018-Aug-15 16:00N 53°20' W 006°06'918.7
2018-Aug-15 15:30N 53°23' W 005°51'7517.2
2018-Aug-15 11:08N 53°34' W 003°46'316.3
2018-Aug-15 10:59N 53°33' W 003°41'816.6
2018-Aug-15 10:30N 53°33' W 003°28'816.7
2018-Aug-15 10:00N 53°31' W 003°14'612.0
2018-Aug-15 09:30N 53°29' W 003°05'3 6.3
2018-Aug-15 09:00N 53°27' W 003°01'0 0.1
2018-Aug-15 08:29N 53°27' W 003°01'0 0.8
2018-Aug-15 08:00N 53°27' W 003°01'0 0.0
2018-Aug-15 07:30N 53°27' W 003°01'0 0.0
2018-Aug-15 06:59N 53°27' W 003°01'0 0.0
2018-Aug-15 06:26N 53°27' W 003°01'0 0.0
2018-Aug-15 05:56N 53°27' W 003°01'0 0.0
2018-Aug-15 05:26N 53°27' W 003°01'0 0.0
2018-Aug-15 04:59N 53°27' W 003°01'0 0.0
2018-Aug-15 04:30N 53°27' W 003°01'0 0.8
2018-Aug-15 04:00N 53°27' W 003°01'1 2.5
2018-Aug-15 03:30N 53°28' W 003°03'713.5
2018-Aug-15 03:00N 53°31' W 003°13'815.9
2018-Aug-15 02:30N 53°31' W 003°26'816.1
2018-Aug-15 02:00N 53°31' W 003°40'816.1
2018-Aug-15 01:30N 53°32' W 003°53'816.4
2018-Aug-15 01:00N 53°34' W 004°06'7217.8
2018-Aug-14 20:56N 53°20' W 006°06'4 9.7
2018-Aug-14 20:30N 53°21' W 006°13'0 0.1
2018-Aug-14 16:51N 53°21' W 006°13'0 0.4
2018-Aug-14 16:28N 53°21' W 006°13'3 5.9
2018-Aug-14 16:00N 53°21' W 006°08'712.9
2018-Aug-14 15:27N 53°22' W 005°57'7817.4
2018-Aug-14 10:58N 53°34' W 003°47'916.7
2018-Aug-14 10:26N 53°33' W 003°32'717.0
2018-Aug-14 10:00N 53°32' W 003°20'815.3
2018-Aug-14 09:30N 53°31' W 003°07'611.3
2018-Aug-14 09:00N 53°27' W 003°01'0 0.2
2018-Aug-14 08:30N 53°27' W 003°01'0 0.8
2018-Aug-14 07:59N 53°27' W 003°01'0 0.0
2018-Aug-14 07:29N 53°27' W 003°01'0 0.0
2018-Aug-14 06:59N 53°27' W 003°01'0 0.0
2018-Aug-14 06:29N 53°27' W 003°01'0 0.0
2018-Aug-14 05:58N 53°27' W 003°01'0 0.0
2018-Aug-14 05:28N 53°27' W 003°01'0 0.0
2018-Aug-14 04:58N 53°27' W 003°01'0 0.0
2018-Aug-14 04:25N 53°27' W 003°01'0 0.6
2018-Aug-14 04:00N 53°27' W 003°01'0 0.7
2018-Aug-14 03:30N 53°27' W 003°01'5 9.8
2018-Aug-14 03:00N 53°31' W 003°06'816.1
2018-Aug-14 02:30N 53°31' W 003°20'816.1
2018-Aug-14 02:00N 53°31' W 003°34'815.5
2018-Aug-14 01:30N 53°31' W 003°47'815.9
2018-Aug-14 00:59N 53°33' W 004°00'1016.4
2018-Aug-14 00:24N 53°35' W 004°16'6417.7
2018-Aug-13 20:46N 53°21' W 006°01'514.5
2018-Aug-13 20:27N 53°21' W 006°09'3 5.4
2018-Aug-13 19:58N 53°21' W 006°13'0 0.0
2018-Aug-13 04:33N 53°21' W 006°13'0 1.6
2018-Aug-13 04:28N 53°21' W 006°13'2 4.3
2018-Aug-13 04:00N 53°21' W 006°10'915.7
2018-Aug-13 03:27N 53°23' W 005°56'916.5
2018-Aug-13 02:55N 53°25' W 005°41'4415.5
2018-Aug-13 00:05N 53°35' W 004°29'116.7
2018-Aug-13 00:00N 53°35' W 004°27'1216.3
2018-Aug-12 23:18N 53°34' W 004°08'1215.5
2018-Aug-12 22:31N 53°34' W 003°47'115.3
2018-Aug-12 22:28N 53°33' W 003°46'714.8
2018-Aug-12 22:00N 53°33' W 003°35'814.8
2018-Aug-12 21:29N 53°32' W 003°22'715.3
2018-Aug-12 21:00N 53°32' W 003°09'713.8
2018-Aug-12 20:30N 53°27' W 003°01'0 0.6
2018-Aug-12 20:00N 53°27' W 003°01'0 0.7
2018-Aug-12 19:25N 53°27' W 003°01'0 0.0
2018-Aug-12 18:58N 53°27' W 003°01'0 0.0
2018-Aug-12 18:25N 53°27' W 003°01'0 0.0
2018-Aug-12 17:58N 53°27' W 003°01'0 0.0
2018-Aug-12 17:30N 53°27' W 003°01'0 0.0
2018-Aug-12 17:00N 53°27' W 003°01'0 0.0
2018-Aug-12 16:30N 53°27' W 003°01'0 0.0
2018-Aug-12 16:00N 53°27' W 003°01'0 0.0
2018-Aug-12 15:29N 53°27' W 003°01'0 0.0
2018-Aug-12 14:59N 53°27' W 003°01'0 0.0
2018-Aug-12 14:29N 53°27' W 003°01'0 0.0
2018-Aug-12 13:59N 53°27' W 003°01'0 0.0
2018-Aug-12 13:26N 53°27' W 003°01'0 0.0
2018-Aug-12 12:58N 53°27' W 003°01'0 0.0
2018-Aug-12 12:28N 53°27' W 003°01'0 0.0
2018-Aug-12 11:58N 53°27' W 003°01'0 0.0
2018-Aug-12 11:28N 53°27' W 003°01'0 0.0
2018-Aug-12 10:59N 53°27' W 003°01'0 0.0
2018-Aug-12 10:30N 53°27' W 003°01'0 0.0
2018-Aug-12 10:00N 53°27' W 003°01'0 0.0
2018-Aug-12 09:30N 53°27' W 003°01'0 0.0
2018-Aug-12 08:57N 53°27' W 003°01'0 0.0
2018-Aug-12 08:29N 53°27' W 003°01'0 0.0
2018-Aug-12 07:59N 53°27' W 003°01'0 0.0
2018-Aug-12 07:29N 53°27' W 003°01'0 0.0
2018-Aug-12 06:59N 53°27' W 003°01'0 0.0
2018-Aug-12 06:29N 53°27' W 003°01'0 0.0
2018-Aug-12 05:58N 53°27' W 003°01'0 0.0
2018-Aug-12 05:28N 53°27' W 003°01'0 0.0
2018-Aug-12 04:58N 53°27' W 003°01'0 0.9
2018-Aug-12 04:30N 53°27' W 003°01'0 0.3
2018-Aug-12 03:55N 53°27' W 003°01'512.6
2018-Aug-12 03:30N 53°31' W 003°07'815.1
2018-Aug-12 03:00N 53°31' W 003°20'917.4
2018-Aug-12 02:30N 53°31' W 003°34'917.2
2018-Aug-12 02:00N 53°32' W 003°49'817.1
2018-Aug-12 01:30N 53°32' W 004°03'7815.3
2018-Aug-11 20:26N 53°21' W 006°12'1 0.3
2018-Aug-11 18:21N 53°21' W 006°13'2 0.9
2018-Aug-11 16:01N 53°21' W 006°09'0 8.8
2018-Aug-11 15:59N 53°21' W 006°09'715.4
2018-Aug-11 15:30N 53°23' W 005°57'7918.2
2018-Aug-11 11:10N 53°34' W 003°46'317.3
2018-Aug-11 11:00N 53°33' W 003°41'816.8
2018-Aug-11 10:30N 53°33' W 003°27'816.7
2018-Aug-11 10:00N 53°31' W 003°13'815.5
2018-Aug-11 09:29N 53°27' W 003°02'0 0.7
2018-Aug-11 09:00N 53°27' W 003°01'0 0.9
2018-Aug-11 08:30N 53°27' W 003°01'0 0.0
2018-Aug-11 08:00N 53°27' W 003°01'0 0.0
2018-Aug-11 07:30N 53°27' W 003°01'0 0.0
2018-Aug-11 06:59N 53°27' W 003°01'0 0.0
2018-Aug-11 06:26N 53°27' W 003°01'0 0.0
2018-Aug-11 05:59N 53°27' W 003°01'0 0.0
2018-Aug-11 05:29N 53°27' W 003°01'0 0.0
2018-Aug-11 04:59N 53°27' W 003°01'0 0.0
2018-Aug-11 04:28N 53°27' W 003°01'0 0.8
2018-Aug-11 03:55N 53°27' W 003°01'0 0.4
2018-Aug-11 03:30N 53°27' W 003°01'611.8
2018-Aug-11 03:00N 53°31' W 003°07'816.0
2018-Aug-11 02:30N 53°31' W 003°21'1019.6
2018-Aug-11 02:00N 53°31' W 003°37'1019.4
2018-Aug-11 01:30N 53°32' W 003°53'7818.3
2018-Aug-10 21:14N 53°20' W 006°03'413.4
2018-Aug-10 20:58N 53°21' W 006°10'2 0.4
2018-Aug-10 16:24N 53°21' W 006°13'2 4.8
2018-Aug-10 16:00N 53°21' W 006°10'814.3
2018-Aug-10 15:28N 53°22' W 005°57'7817.9
2018-Aug-10 11:08N 53°34' W 003°49'217.3
2018-Aug-10 11:00N 53°34' W 003°45'916.8
2018-Aug-10 10:30N 53°33' W 003°30'816.6
2018-Aug-10 10:00N 53°32' W 003°17'815.6
2018-Aug-10 09:30N 53°29' W 003°05'3 5.8
2018-Aug-10 09:00N 53°27' W 003°01'0 0.9
2018-Aug-10 08:30N 53°27' W 003°01'0 0.0
2018-Aug-10 07:59N 53°27' W 003°01'0 0.0
2018-Aug-10 07:29N 53°27' W 003°01'0 0.0
2018-Aug-10 06:59N 53°27' W 003°01'0 0.0
2018-Aug-10 06:29N 53°27' W 003°01'0 0.0
2018-Aug-10 05:59N 53°27' W 003°01'0 0.0
2018-Aug-10 05:28N 53°27' W 003°01'0 0.0
2018-Aug-10 04:58N 53°27' W 003°01'0 0.2
2018-Aug-10 04:25N 53°27' W 003°01'0 0.8
2018-Aug-10 03:59N 53°27' W 003°01'0 0.3
2018-Aug-10 03:30N 53°27' W 003°01'713.6
2018-Aug-10 03:00N 53°32' W 003°09'916.5
2018-Aug-10 02:29N 53°31' W 003°24'918.1
2018-Aug-10 01:59N 53°31' W 003°39'917.8
2018-Aug-10 01:30N 53°32' W 003°53'7717.7
2018-Aug-09 21:11N 53°21' W 006°01'515.6
2018-Aug-09 20:53N 53°21' W 006°08'3 7.1
2018-Aug-09 20:30N 53°21' W 006°13'0 0.0
2018-Aug-09 18:08N 53°21' W 006°13'0 0.1
2018-Aug-09 16:18N 53°21' W 006°13'2 6.8
2018-Aug-09 15:56N 53°21' W 006°09'715.6
2018-Aug-09 15:28N 53°22' W 005°57'7217.4
2018-Aug-09 11:20N 53°34' W 003°58'818.2
2018-Aug-09 10:52N 53°33' W 003°44'617.6
2018-Aug-09 10:30N 53°33' W 003°33'917.2
2018-Aug-09 10:00N 53°32' W 003°18'816.5
2018-Aug-09 09:30N 53°30' W 003°05'4 6.9
2018-Aug-09 09:00N 53°27' W 003°01'0 0.9
2018-Aug-09 08:30N 53°27' W 003°01'0 0.0
2018-Aug-09 07:55N 53°27' W 003°01'0 0.0
2018-Aug-09 07:30N 53°27' W 003°01'0 0.0
2018-Aug-09 07:00N 53°27' W 003°01'0 0.0
2018-Aug-09 06:24N 53°27' W 003°01'0 0.0
2018-Aug-09 06:00N 53°27' W 003°01'0 0.0
2018-Aug-09 05:30N 53°27' W 003°01'0 0.0
2018-Aug-09 04:56N 53°27' W 003°01'0 0.0
2018-Aug-09 04:29N 53°27' W 003°01'0 0.9
2018-Aug-09 04:00N 53°27' W 003°01'0 0.2
2018-Aug-09 03:30N 53°27' W 003°01'510.6
2018-Aug-09 03:01N 53°31' W 003°07'815.6
2018-Aug-09 02:30N 53°31' W 003°20'918.3
2018-Aug-09 02:00N 53°31' W 003°35'918.3
2018-Aug-09 01:30N 53°32' W 003°51'918.2
2018-Aug-09 01:00N 53°34' W 004°06'917.6
2018-Aug-09 00:30N 53°35' W 004°20'1317.4
2018-Aug-08 23:45N 53°35' W 004°42'4218.7
2018-Aug-08 21:29N 53°23' W 005°51'1411.8
2018-Aug-08 20:21N 53°21' W 006°13'5 1.1
2018-Aug-08 15:44N 53°20' W 006°05'916.6
2018-Aug-08 15:11N 53°24' W 005°50'417.6
2018-Aug-08 14:56N 53°25' W 005°43'917.1
2018-Aug-08 14:27N 53°27' W 005°30'6117.7
2018-Aug-08 10:58N 53°34' W 003°47'817.7
2018-Aug-08 10:30N 53°33' W 003°33'917.4
2018-Aug-08 10:00N 53°32' W 003°19'816.9
2018-Aug-08 09:30N 53°29' W 003°05'3 6.5
2018-Aug-08 09:00N 53°27' W 003°01'0 0.9
2018-Aug-08 08:30N 53°27' W 003°01'0 0.0
2018-Aug-08 07:55N 53°27' W 003°01'0 0.0
2018-Aug-08 07:30N 53°27' W 003°01'0 0.0
2018-Aug-08 06:57N 53°27' W 003°01'0 0.0
2018-Aug-08 06:27N 53°27' W 003°01'0 0.0
2018-Aug-08 06:00N 53°27' W 003°01'0 0.0
2018-Aug-08 05:30N 53°27' W 003°01'0 0.0
2018-Aug-08 04:59N 53°27' W 003°01'0 0.0
2018-Aug-08 04:26N 53°27' W 003°01'0 0.9
2018-Aug-08 03:59N 53°27' W 003°01'0 0.3
2018-Aug-08 03:30N 53°27' W 003°01'714.4
2018-Aug-08 03:00N 53°32' W 003°10'917.1
2018-Aug-08 02:29N 53°31' W 003°25'817.1
2018-Aug-08 02:00N 53°31' W 003°39'816.7
2018-Aug-08 01:31N 53°32' W 003°53'917.3
2018-Aug-08 01:00N 53°34' W 004°07'  

Dump ship's entire track history